DAL2600 KRDU-KATL
Flight info
| Callsign | DAL2600 |
|---|---|
| Flight time | 1h 11m |
| Altitude | 32000 |
| Route | SHPRD4 SHPRD LEAVI OZZZI2 |
| Aircraft | B739/M-SDE2E3FGHIRWXY/LB1 |
Departure
| Time | 2026-05-06 23:46 |
|---|---|
| Airport | Raleigh-Durham International Airport (KRDU) |
Arrival
| Time | 2026-05-07 00:57 |
|---|---|
| Airport | Hartsfield Jackson Atlanta International Airport (KATL) |
| Time | Latitude | Longitude | Altitude | Speed | Heading |
|---|---|---|---|---|---|
| 2026-05-06 23:30 | 35.87758 | -78.79416 | 391 ft | 0 kts | 134° |
| 2026-05-06 23:34 | 35.87758 | -78.79417 | 391 ft | 0 kts | 134° |
| 2026-05-06 23:34 | 35.87768 | -78.79429 | 390 ft | 2 kts | 134° |
| 2026-05-06 23:34 | 35.87775 | -78.79437 | 390 ft | 1 kts | 134° |
| 2026-05-06 23:34 | 35.87783 | -78.79452 | 389 ft | 2 kts | 107° |
| 2026-05-06 23:35 | 35.87785 | -78.79471 | 389 ft | 2 kts | 84° |
| 2026-05-06 23:35 | 35.87781 | -78.79488 | 388 ft | 2 kts | 58° |
| 2026-05-06 23:35 | 35.87776 | -78.79496 | 388 ft | 1 kts | 44° |
| 2026-05-06 23:35 | 35.87772 | -78.79501 | 388 ft | 0 kts | 45° |
| 2026-05-06 23:37 | 35.87790 | -78.79478 | 389 ft | 6 kts | 46° |
| 2026-05-06 23:37 | 35.87828 | -78.79431 | 390 ft | 8 kts | 45° |
| 2026-05-06 23:38 | 35.87885 | -78.79407 | 391 ft | 11 kts | 343° |
| 2026-05-06 23:38 | 35.87963 | -78.79364 | 392 ft | 14 kts | 46° |
| 2026-05-06 23:38 | 35.88036 | -78.79274 | 394 ft | 17 kts | 45° |
| 2026-05-06 23:38 | 35.88094 | -78.79172 | 397 ft | 12 kts | 100° |
| 2026-05-06 23:39 | 35.88104 | -78.79090 | 399 ft | 11 kts | 49° |
| 2026-05-06 23:39 | 35.88153 | -78.79028 | 400 ft | 10 kts | 45° |
| 2026-05-06 23:39 | 35.88212 | -78.78956 | 401 ft | 12 kts | 45° |
| 2026-05-06 23:39 | 35.88267 | -78.78887 | 402 ft | 10 kts | 45° |
| 2026-05-06 23:40 | 35.88332 | -78.78806 | 403 ft | 17 kts | 45° |
| 2026-05-06 23:40 | 35.88438 | -78.78676 | 405 ft | 22 kts | 45° |
| 2026-05-06 23:40 | 35.88541 | -78.78548 | 404 ft | 21 kts | 45° |
| 2026-05-06 23:40 | 35.88640 | -78.78426 | 404 ft | 20 kts | 45° |
| 2026-05-06 23:41 | 35.88735 | -78.78309 | 403 ft | 19 kts | 45° |
| 2026-05-06 23:41 | 35.88826 | -78.78196 | 402 ft | 18 kts | 45° |
| 2026-05-06 23:41 | 35.88910 | -78.78093 | 402 ft | 17 kts | 44° |
| 2026-05-06 23:41 | 35.88982 | -78.77984 | 402 ft | 17 kts | 72° |
| 2026-05-06 23:42 | 35.89041 | -78.77851 | 402 ft | 18 kts | 45° |
| 2026-05-06 23:42 | 35.89127 | -78.77745 | 403 ft | 16 kts | 45° |
| 2026-05-06 23:42 | 35.89203 | -78.77657 | 404 ft | 14 kts | 24° |
| 2026-05-06 23:42 | 35.89278 | -78.77701 | 404 ft | 12 kts | 315° |
| 2026-05-06 23:43 | 35.89297 | -78.77724 | 403 ft | 0 kts | 315° |
| 2026-05-06 23:44 | 35.89298 | -78.77726 | 403 ft | 1 kts | 315° |
| 2026-05-06 23:45 | 35.89326 | -78.77760 | 403 ft | 9 kts | 315° |
| 2026-05-06 23:45 | 35.89350 | -78.77839 | 403 ft | 11 kts | 241° |
| 2026-05-06 23:45 | 35.89333 | -78.77863 | 403 ft | 0 kts | 225° |
| 2026-05-06 23:45 | 35.89333 | -78.77864 | 403 ft | 2 kts | 225° |
| 2026-05-06 23:46 | 35.89186 | -78.78046 | 401 ft | 65 kts | 225° |
| 2026-05-06 23:46 | 35.88743 | -78.78593 | 401 ft | 124 kts | 225° |
| 2026-05-06 23:46 | 35.88070 | -78.79424 | 433 ft | 168 kts | 225° |
| 2026-05-06 23:46 | 35.87350 | -78.80283 | 1130 ft | 160 kts | 224° |
| 2026-05-06 23:47 | 35.86578 | -78.81226 | 1667 ft | 171 kts | 225° |
| 2026-05-06 23:47 | 35.85730 | -78.82259 | 2223 ft | 179 kts | 225° |
| 2026-05-06 23:47 | 35.84833 | -78.83343 | 2636 ft | 193 kts | 225° |
| 2026-05-06 23:47 | 35.83902 | -78.84460 | 2982 ft | 210 kts | 225° |
| 2026-05-06 23:48 | 35.82872 | -78.85693 | 3399 ft | 225 kts | 225° |
| 2026-05-06 23:48 | 35.81730 | -78.87044 | 4182 ft | 226 kts | 225° |
| 2026-05-06 23:48 | 35.80601 | -78.88377 | 4743 ft | 237 kts | 230° |
| 2026-05-06 23:48 | 35.79855 | -78.90080 | 5231 ft | 247 kts | 257° |
| 2026-05-06 23:49 | 35.79845 | -78.92120 | 5862 ft | 254 kts | 276° |
| 2026-05-06 23:49 | 35.80137 | -78.94258 | 6739 ft | 252 kts | 278° |
| 2026-05-06 23:49 | 35.80414 | -78.96388 | 7488 ft | 254 kts | 276° |
| 2026-05-06 23:49 | 35.80640 | -78.98525 | 8259 ft | 254 kts | 276° |
| 2026-05-06 23:50 | 35.80841 | -79.00661 | 8979 ft | 255 kts | 275° |
| 2026-05-06 23:50 | 35.81243 | -79.05011 | 10343 ft | 262 kts | 276° |
| 2026-05-06 23:50 | 35.81451 | -79.07230 | 10717 ft | 276 kts | 276° |
| 2026-05-06 23:51 | 35.81677 | -79.09592 | 11122 ft | 288 kts | 275° |
| 2026-05-06 23:51 | 35.81909 | -79.12077 | 11590 ft | 298 kts | 276° |
| 2026-05-06 23:51 | 35.82142 | -79.14612 | 12362 ft | 299 kts | 276° |
| 2026-05-06 23:51 | 35.82375 | -79.17117 | 13139 ft | 298 kts | 276° |
| 2026-05-06 23:52 | 35.82608 | -79.19594 | 13759 ft | 303 kts | 276° |
| 2026-05-06 23:52 | 35.82845 | -79.22156 | 14370 ft | 308 kts | 275° |
| 2026-05-06 23:52 | 35.83083 | -79.24774 | 15047 ft | 311 kts | 275° |
| 2026-05-06 23:52 | 35.83321 | -79.27376 | 15756 ft | 312 kts | 275° |
| 2026-05-06 23:53 | 35.83487 | -79.30078 | 16353 ft | 317 kts | 271° |
| 2026-05-06 23:53 | 35.83431 | -79.32794 | 16973 ft | 320 kts | 267° |
| 2026-05-06 23:53 | 35.83237 | -79.35521 | 17580 ft | 323 kts | 265° |
| 2026-05-06 23:53 | 35.82996 | -79.38270 | 18253 ft | 324 kts | 265° |
| 2026-05-06 23:54 | 35.82756 | -79.41026 | 18805 ft | 328 kts | 265° |
| 2026-05-06 23:54 | 35.82525 | -79.43810 | 19385 ft | 330 kts | 265° |
| 2026-05-06 23:54 | 35.82303 | -79.46629 | 19942 ft | 333 kts | 266° |
| 2026-05-06 23:54 | 35.82083 | -79.49477 | 20539 ft | 335 kts | 266° |
| 2026-05-06 23:55 | 35.81862 | -79.52357 | 21035 ft | 339 kts | 266° |
| 2026-05-06 23:55 | 35.81566 | -79.55252 | 21547 ft | 342 kts | 263° |
| 2026-05-06 23:55 | 35.81121 | -79.58117 | 22041 ft | 346 kts | 260° |
| 2026-05-06 23:55 | 35.80605 | -79.61002 | 22544 ft | 348 kts | 259° |
| 2026-05-06 23:56 | 35.80069 | -79.63933 | 23001 ft | 352 kts | 259° |
| 2026-05-06 23:56 | 35.79612 | -79.66455 | 23402 ft | 354 kts | 259° |
| 2026-05-06 23:56 | 35.79221 | -79.68652 | 23793 ft | 355 kts | 259° |
| 2026-05-06 23:56 | 35.78837 | -79.70828 | 24266 ft | 354 kts | 259° |
| 2026-05-06 23:57 | 35.78412 | -79.73245 | 24692 ft | 354 kts | 259° |
| 2026-05-06 23:57 | 35.78004 | -79.75597 | 24973 ft | 359 kts | 260° |
| 2026-05-06 23:57 | 35.77500 | -79.78510 | 25510 ft | 358 kts | 259° |
| 2026-05-06 23:57 | 35.76985 | -79.81488 | 25966 ft | 360 kts | 260° |
| 2026-05-06 23:58 | 35.76472 | -79.84483 | 26336 ft | 363 kts | 261° |
| 2026-05-06 23:58 | 35.75950 | -79.87526 | 26828 ft | 363 kts | 260° |
| 2026-05-06 23:58 | 35.75425 | -79.90573 | 27305 ft | 364 kts | 259° |
| 2026-05-06 23:58 | 35.74899 | -79.93613 | 27586 ft | 369 kts | 259° |
| 2026-05-06 23:59 | 35.74365 | -79.96708 | 27982 ft | 370 kts | 260° |
| 2026-05-06 23:59 | 35.73840 | -79.99734 | 28479 ft | 369 kts | 260° |
| 2026-05-06 23:59 | 35.73304 | -80.02808 | 28889 ft | 370 kts | 259° |
| 2026-05-06 23:59 | 35.72767 | -80.05902 | 29158 ft | 373 kts | 260° |
| 2026-05-07 00:00 | 35.72229 | -80.08994 | 29522 ft | 375 kts | 260° |
| 2026-05-07 00:00 | 35.71693 | -80.12067 | 29893 ft | 375 kts | 260° |
| 2026-05-07 00:00 | 35.71140 | -80.15241 | 30313 ft | 375 kts | 260° |
| 2026-05-07 00:00 | 35.70597 | -80.18353 | 30813 ft | 372 kts | 259° |
| 2026-05-07 00:01 | 35.70060 | -80.21417 | 31131 ft | 374 kts | 260° |
| 2026-05-07 00:01 | 35.69527 | -80.24485 | 31435 ft | 375 kts | 259° |
| 2026-05-07 00:01 | 35.68987 | -80.27586 | 31796 ft | 375 kts | 260° |
| 2026-05-07 00:01 | 35.68437 | -80.30727 | 32037 ft | 378 kts | 260° |
| 2026-05-07 00:02 | 35.67879 | -80.33898 | 32245 ft | 382 kts | 260° |
| 2026-05-07 00:02 | 35.67327 | -80.36989 | 32612 ft | 382 kts | 259° |
| 2026-05-07 00:02 | 35.66747 | -80.40157 | 33058 ft | 380 kts | 259° |
| 2026-05-07 00:02 | 35.66025 | -80.43259 | 33435 ft | 380 kts | 254° |
| 2026-05-07 00:03 | 35.65033 | -80.46171 | 33823 ft | 382 kts | 249° |
| 2026-05-07 00:03 | 35.63764 | -80.48865 | 34296 ft | 384 kts | 243° |
| 2026-05-07 00:03 | 35.62354 | -80.51559 | 34788 ft | 377 kts | 247° |
| 2026-05-07 00:03 | 35.61177 | -80.54289 | 35338 ft | 368 kts | 250° |
| 2026-05-07 00:04 | 35.60100 | -80.57098 | 35882 ft | 356 kts | 251° |
| 2026-05-07 00:04 | 35.59148 | -80.59663 | 35949 ft | 350 kts | 250° |
| 2026-05-07 00:04 | 35.56126 | -80.64367 | 35957 ft | 368 kts | 230° |
| 2026-05-07 00:05 | 35.53484 | -80.66737 | 35953 ft | 370 kts | 226° |
| 2026-05-07 00:05 | 35.50783 | -80.69057 | 35963 ft | 373 kts | 226° |
| 2026-05-07 00:06 | 35.47259 | -80.72173 | 35955 ft | 374 kts | 227° |
| 2026-05-07 00:06 | 35.43164 | -80.75891 | 35961 ft | 377 kts | 227° |
| 2026-05-07 00:07 | 35.38962 | -80.79765 | 35953 ft | 376 kts | 228° |
| 2026-05-07 00:07 | 35.35159 | -80.83302 | 35952 ft | 377 kts | 229° |
| 2026-05-07 00:08 | 35.30959 | -80.87201 | 35944 ft | 379 kts | 228° |
| 2026-05-07 00:08 | 35.26807 | -80.91035 | 35944 ft | 377 kts | 227° |
| 2026-05-07 00:09 | 35.22669 | -80.94867 | 35942 ft | 380 kts | 227° |
| 2026-05-07 00:09 | 35.18522 | -80.98696 | 35949 ft | 381 kts | 228° |
| 2026-05-07 00:10 | 35.14314 | -81.02565 | 35949 ft | 378 kts | 226° |
| 2026-05-07 00:10 | 35.10126 | -81.06430 | 35953 ft | 383 kts | 227° |
| 2026-05-07 00:11 | 35.05850 | -81.10371 | 35956 ft | 386 kts | 227° |
| 2026-05-07 00:11 | 35.01556 | -81.14334 | 35948 ft | 387 kts | 228° |
| 2026-05-07 00:12 | 34.97292 | -81.18240 | 35953 ft | 385 kts | 227° |
| 2026-05-07 00:12 | 34.92970 | -81.22195 | 35948 ft | 386 kts | 227° |
| 2026-05-07 00:13 | 34.88870 | -81.25939 | 35940 ft | 381 kts | 227° |
| 2026-05-07 00:13 | 34.86035 | -81.28532 | 35949 ft | 382 kts | 227° |
| 2026-05-07 00:14 | 34.83298 | -81.31049 | 35950 ft | 387 kts | 227° |
| 2026-05-07 00:14 | 34.79437 | -81.34587 | 35941 ft | 388 kts | 226° |
| 2026-05-07 00:15 | 34.75214 | -81.38446 | 35942 ft | 389 kts | 227° |
| 2026-05-07 00:15 | 34.70950 | -81.42336 | 35924 ft | 385 kts | 227° |
| 2026-05-07 00:16 | 34.66718 | -81.46189 | 35918 ft | 388 kts | 227° |
| 2026-05-07 00:16 | 34.62455 | -81.50060 | 35913 ft | 386 kts | 227° |
| 2026-05-07 00:17 | 34.58221 | -81.53908 | 35915 ft | 388 kts | 226° |
| 2026-05-07 00:17 | 34.53937 | -81.57783 | 35932 ft | 385 kts | 227° |
| 2026-05-07 00:18 | 34.49694 | -81.61633 | 35945 ft | 390 kts | 227° |
| 2026-05-07 00:18 | 34.45507 | -81.65408 | 35949 ft | 389 kts | 226° |
| 2026-05-07 00:19 | 34.39268 | -81.71056 | 35950 ft | 399 kts | 227° |
| 2026-05-07 00:20 | 34.34494 | -81.75343 | 35958 ft | 391 kts | 226° |
| 2026-05-07 00:20 | 34.29938 | -81.79447 | 35948 ft | 395 kts | 227° |
| 2026-05-07 00:21 | 34.25579 | -81.83360 | 35947 ft | 389 kts | 226° |
| 2026-05-07 00:21 | 34.21275 | -81.87213 | 35945 ft | 391 kts | 226° |
| 2026-05-07 00:22 | 34.16918 | -81.91120 | 35939 ft | 390 kts | 226° |
| 2026-05-07 00:22 | 34.12574 | -81.95011 | 35937 ft | 390 kts | 227° |
| 2026-05-07 00:23 | 34.08277 | -81.98846 | 35939 ft | 388 kts | 227° |
| 2026-05-07 00:23 | 34.04004 | -82.02653 | 35947 ft | 389 kts | 227° |
| 2026-05-07 00:24 | 33.99739 | -82.06454 | 35939 ft | 387 kts | 227° |
| 2026-05-07 00:24 | 33.95604 | -82.10410 | 35943 ft | 381 kts | 232° |
| 2026-05-07 00:25 | 33.91849 | -82.14840 | 35946 ft | 378 kts | 235° |
| 2026-05-07 00:25 | 33.88644 | -82.18780 | 35943 ft | 376 kts | 235° |
| 2026-05-07 00:26 | 33.86270 | -82.21678 | 35942 ft | 378 kts | 235° |
| 2026-05-07 00:26 | 33.84035 | -82.24384 | 35942 ft | 379 kts | 234° |
| 2026-05-07 00:27 | 33.79903 | -82.29347 | 35937 ft | 376 kts | 234° |
| 2026-05-07 00:27 | 33.76040 | -82.33958 | 35943 ft | 377 kts | 234° |
| 2026-05-07 00:28 | 33.72306 | -82.38410 | 35945 ft | 379 kts | 235° |
| 2026-05-07 00:28 | 33.68576 | -82.42845 | 35957 ft | 383 kts | 234° |
| 2026-05-07 00:29 | 33.64819 | -82.47311 | 35962 ft | 381 kts | 234° |
| 2026-05-07 00:30 | 33.57335 | -82.56161 | 35507 ft | 377 kts | 234° |
| 2026-05-07 00:30 | 33.55473 | -82.58366 | 34672 ft | 380 kts | 233° |
| 2026-05-07 00:30 | 33.53601 | -82.60578 | 34199 ft | 375 kts | 233° |
| 2026-05-07 00:31 | 33.51790 | -82.62712 | 33643 ft | 372 kts | 233° |
| 2026-05-07 00:31 | 33.49943 | -82.64892 | 33066 ft | 369 kts | 233° |
| 2026-05-07 00:31 | 33.48576 | -82.66505 | 32636 ft | 369 kts | 233° |
| 2026-05-07 00:31 | 33.47242 | -82.68082 | 32174 ft | 373 kts | 233° |
| 2026-05-07 00:32 | 33.46134 | -82.69392 | 31926 ft | 371 kts | 233° |
| 2026-05-07 00:32 | 33.44333 | -82.71516 | 31577 ft | 367 kts | 233° |
| 2026-05-07 00:32 | 33.42980 | -82.73108 | 31257 ft | 365 kts | 233° |
| 2026-05-07 00:32 | 33.41795 | -82.74502 | 30936 ft | 365 kts | 233° |
| 2026-05-07 00:33 | 33.39765 | -82.76891 | 30440 ft | 362 kts | 232° |
| 2026-05-07 00:33 | 33.38020 | -82.78941 | 29891 ft | 359 kts | 232° |
| 2026-05-07 00:33 | 33.36200 | -82.81076 | 29260 ft | 358 kts | 233° |
| 2026-05-07 00:33 | 33.34333 | -82.83275 | 28662 ft | 362 kts | 233° |
| 2026-05-07 00:34 | 33.32637 | -82.85516 | 28520 ft | 355 kts | 240° |
| 2026-05-07 00:34 | 33.31337 | -82.87933 | 28424 ft | 343 kts | 250° |
| 2026-05-07 00:34 | 33.30481 | -82.90510 | 28106 ft | 327 kts | 258° |
| 2026-05-07 00:34 | 33.29958 | -82.93137 | 27320 ft | 326 kts | 263° |
| 2026-05-07 00:35 | 33.29603 | -82.95794 | 26692 ft | 321 kts | 265° |
| 2026-05-07 00:35 | 33.29306 | -82.98394 | 26114 ft | 318 kts | 265° |
| 2026-05-07 00:35 | 33.29014 | -83.00984 | 25520 ft | 314 kts | 265° |
| 2026-05-07 00:35 | 33.28716 | -83.03585 | 24896 ft | 311 kts | 264° |
| 2026-05-07 00:36 | 33.28419 | -83.06129 | 24260 ft | 309 kts | 263° |
| 2026-05-07 00:36 | 33.28122 | -83.08641 | 23651 ft | 306 kts | 263° |
| 2026-05-07 00:36 | 33.27825 | -83.11124 | 23075 ft | 302 kts | 264° |
| 2026-05-07 00:36 | 33.27526 | -83.13602 | 22496 ft | 299 kts | 263° |
| 2026-05-07 00:37 | 33.27235 | -83.16029 | 22033 ft | 292 kts | 263° |
| 2026-05-07 00:37 | 33.26955 | -83.18341 | 21623 ft | 290 kts | 263° |
| 2026-05-07 00:37 | 33.26661 | -83.20761 | 21188 ft | 288 kts | 263° |
| 2026-05-07 00:37 | 33.26379 | -83.23103 | 20764 ft | 286 kts | 263° |
| 2026-05-07 00:38 | 33.26099 | -83.25431 | 20352 ft | 284 kts | 263° |
| 2026-05-07 00:38 | 33.25822 | -83.27738 | 19945 ft | 282 kts | 263° |
| 2026-05-07 00:38 | 33.25543 | -83.30065 | 19528 ft | 280 kts | 263° |
| 2026-05-07 00:38 | 33.25263 | -83.32369 | 19122 ft | 278 kts | 262° |
| 2026-05-07 00:39 | 33.24989 | -83.34613 | 18727 ft | 276 kts | 263° |
| 2026-05-07 00:39 | 33.24714 | -83.36872 | 18328 ft | 274 kts | 263° |
| 2026-05-07 00:39 | 33.24440 | -83.39128 | 17924 ft | 273 kts | 263° |
| 2026-05-07 00:39 | 33.24170 | -83.41354 | 17540 ft | 272 kts | 263° |
| 2026-05-07 00:40 | 33.23895 | -83.43611 | 17136 ft | 278 kts | 263° |
| 2026-05-07 00:40 | 33.23606 | -83.45950 | 16721 ft | 294 kts | 262° |
| 2026-05-07 00:40 | 33.23300 | -83.48403 | 16285 ft | 304 kts | 262° |
| 2026-05-07 00:40 | 33.22986 | -83.50897 | 15844 ft | 304 kts | 262° |
| 2026-05-07 00:41 | 33.22675 | -83.53392 | 15395 ft | 301 kts | 262° |
| 2026-05-07 00:41 | 33.22372 | -83.55835 | 14955 ft | 298 kts | 262° |
| 2026-05-07 00:41 | 33.22067 | -83.58271 | 14534 ft | 295 kts | 261° |
| 2026-05-07 00:41 | 33.21763 | -83.60695 | 14112 ft | 292 kts | 261° |
| 2026-05-07 00:42 | 33.21467 | -83.63061 | 13693 ft | 290 kts | 261° |
| 2026-05-07 00:42 | 33.21175 | -83.65389 | 13284 ft | 287 kts | 260° |
| 2026-05-07 00:42 | 33.20948 | -83.67191 | 12969 ft | 286 kts | 260° |
| 2026-05-07 00:42 | 33.20756 | -83.68729 | 12703 ft | 284 kts | 260° |
| 2026-05-07 00:43 | 33.20522 | -83.70589 | 12377 ft | 283 kts | 261° |
| 2026-05-07 00:43 | 33.20240 | -83.72825 | 11986 ft | 282 kts | 260° |
| 2026-05-07 00:43 | 33.19910 | -83.75449 | 11594 ft | 277 kts | 259° |
| 2026-05-07 00:43 | 33.19595 | -83.77992 | 11200 ft | 274 kts | 260° |
| 2026-05-07 00:44 | 33.19379 | -83.80241 | 10812 ft | 273 kts | 266° |
| 2026-05-07 00:44 | 33.19534 | -83.82121 | 10498 ft | 274 kts | 282° |
| 2026-05-07 00:44 | 33.19580 | -83.82301 | 10470 ft | 275 kts | 284° |
| 2026-05-07 00:45 | 33.20575 | -83.84259 | 10108 ft | 283 kts | 307° |
| 2026-05-07 00:45 | 33.21959 | -83.85867 | 9896 ft | 277 kts | 311° |
| 2026-05-07 00:45 | 33.23335 | -83.87410 | 9621 ft | 273 kts | 309° |
| 2026-05-07 00:45 | 33.24828 | -83.88789 | 9330 ft | 276 kts | 325° |
| 2026-05-07 00:46 | 33.26580 | -83.89686 | 9057 ft | 276 kts | 333° |
| 2026-05-07 00:46 | 33.28384 | -83.90437 | 8737 ft | 275 kts | 335° |
| 2026-05-07 00:46 | 33.30204 | -83.91190 | 8421 ft | 288 kts | 334° |
| 2026-05-07 00:46 | 33.32015 | -83.91959 | 8428 ft | 278 kts | 334° |
| 2026-05-07 00:47 | 33.33805 | -83.92705 | 8175 ft | 274 kts | 334° |
| 2026-05-07 00:47 | 33.35587 | -83.93441 | 7898 ft | 271 kts | 334° |
| 2026-05-07 00:47 | 33.37352 | -83.94179 | 7503 ft | 272 kts | 334° |
| 2026-05-07 00:47 | 33.39108 | -83.94926 | 7156 ft | 272 kts | 334° |
| 2026-05-07 00:48 | 33.40845 | -83.95673 | 6820 ft | 271 kts | 334° |
| 2026-05-07 00:48 | 33.42631 | -83.96433 | 6489 ft | 270 kts | 334° |
| 2026-05-07 00:48 | 33.44318 | -83.97212 | 6179 ft | 266 kts | 329° |
| 2026-05-07 00:48 | 33.45930 | -83.98212 | 5845 ft | 264 kts | 324° |
| 2026-05-07 00:49 | 33.47471 | -83.99248 | 5490 ft | 264 kts | 324° |
| 2026-05-07 00:49 | 33.49077 | -84.00331 | 5111 ft | 265 kts | 324° |
| 2026-05-07 00:49 | 33.50659 | -84.01405 | 4957 ft | 257 kts | 324° |
| 2026-05-07 00:49 | 33.52158 | -84.02422 | 4501 ft | 263 kts | 324° |
| 2026-05-07 00:50 | 33.53673 | -84.03455 | 4073 ft | 267 kts | 324° |
| 2026-05-07 00:50 | 33.55308 | -84.04570 | 3705 ft | 268 kts | 324° |
| 2026-05-07 00:50 | 33.56930 | -84.05675 | 3345 ft | 268 kts | 323° |
| 2026-05-07 00:50 | 33.58334 | -84.06982 | 3006 ft | 258 kts | 304° |
| 2026-05-07 00:51 | 33.59271 | -84.08655 | 2974 ft | 239 kts | 294° |
| 2026-05-07 00:51 | 33.60066 | -84.10310 | 2981 ft | 224 kts | 294° |
| 2026-05-07 00:51 | 33.60834 | -84.11866 | 2988 ft | 207 kts | 294° |
| 2026-05-07 00:51 | 33.61557 | -84.13287 | 2977 ft | 194 kts | 294° |
| 2026-05-07 00:52 | 33.62242 | -84.14648 | 2989 ft | 203 kts | 292° |
| 2026-05-07 00:52 | 33.62818 | -84.16174 | 2981 ft | 203 kts | 283° |
| 2026-05-07 00:52 | 33.63107 | -84.17808 | 2977 ft | 198 kts | 270° |
| 2026-05-07 00:52 | 33.63141 | -84.19413 | 2981 ft | 197 kts | 265° |
| 2026-05-07 00:53 | 33.63146 | -84.21018 | 2978 ft | 199 kts | 266° |
| 2026-05-07 00:53 | 33.63157 | -84.22594 | 2966 ft | 185 kts | 265° |
| 2026-05-07 00:53 | 33.63163 | -84.24056 | 2968 ft | 168 kts | 264° |
| 2026-05-07 00:53 | 33.63169 | -84.25363 | 2970 ft | 154 kts | 263° |
| 2026-05-07 00:54 | 33.63169 | -84.26617 | 3019 ft | 157 kts | 263° |
| 2026-05-07 00:54 | 33.63168 | -84.27943 | 2986 ft | 163 kts | 264° |
| 2026-05-07 00:54 | 33.63169 | -84.29288 | 2973 ft | 164 kts | 264° |
| 2026-05-07 00:54 | 33.63163 | -84.30594 | 2797 ft | 152 kts | 264° |
| 2026-05-07 00:55 | 33.63168 | -84.31779 | 2627 ft | 137 kts | 264° |
| 2026-05-07 00:55 | 33.63174 | -84.32859 | 2442 ft | 132 kts | 264° |
| 2026-05-07 00:55 | 33.63171 | -84.34002 | 2294 ft | 142 kts | 266° |
| 2026-05-07 00:55 | 33.63180 | -84.35194 | 2080 ft | 144 kts | 268° |
| 2026-05-07 00:56 | 33.63178 | -84.36369 | 1903 ft | 144 kts | 266° |
| 2026-05-07 00:56 | 33.63165 | -84.37575 | 1713 ft | 146 kts | 267° |
| 2026-05-07 00:56 | 33.63177 | -84.38796 | 1515 ft | 148 kts | 269° |
| 2026-05-07 00:56 | 33.63178 | -84.40015 | 1341 ft | 150 kts | 269° |
| 2026-05-07 00:57 | 33.63181 | -84.41218 | 1151 ft | 152 kts | 269° |
| 2026-05-07 00:57 | 33.63181 | -84.42364 | 1004 ft | 141 kts | 270° |
| 2026-05-07 00:57 | 33.63182 | -84.43118 | 1008 ft | 86 kts | 270° |
| 2026-05-07 00:57 | 33.63208 | -84.43567 | 1011 ft | 45 kts | 288° |
| 2026-05-07 00:58 | 33.63307 | -84.43797 | 1014 ft | 26 kts | 299° |
| 2026-05-07 00:58 | 33.63361 | -84.43999 | 1013 ft | 27 kts | 269° |
| 2026-05-07 00:58 | 33.63410 | -84.44190 | 1010 ft | 28 kts | 348° |
| 2026-05-07 00:58 | 33.63611 | -84.44193 | 1006 ft | 29 kts | 4° |
| 2026-05-07 00:59 | 33.63665 | -84.43773 | 1006 ft | 26 kts | 76° |
| 2026-05-07 00:59 | 33.63824 | -84.43722 | 1006 ft | 24 kts | 1° |
| 2026-05-07 00:59 | 33.63981 | -84.43722 | 1006 ft | 23 kts | 360° |
| 2026-05-07 01:00 | 33.64137 | -84.43722 | 1006 ft | 21 kts | 360° |
| 2026-05-07 01:00 | 33.64252 | -84.43721 | 1006 ft | 4 kts | 1° |
| 2026-05-07 01:00 | 33.64278 | -84.43720 | 1006 ft | 5 kts | 9° |
| 2026-05-07 01:00 | 33.64305 | -84.43668 | 1006 ft | 8 kts | 90° |
| 2026-05-07 01:01 | 33.64305 | -84.43647 | 1006 ft | 0 kts | 90° |